Terminal Aerodrome Forecast
Issued by NWS Sterling, VA

Current Version | Previous Version | Graphics & Text | Print | Product List | Glossary On
Versions: 1 2 3 4 5 6 7 8 9 10 11 12 13 14 15 16 17 18 19 20 21 22 23
000
FTUS41 KLWX 132329
TAFDCA
TAF
KDCA 132329Z 1400/1506 20007KT P6SM VCSH BKN050 BKN110
     FM140900 22010KT P6SM BKN060
     FM141300 29010KT P6SM BKN045
     FM141700 32012G20KT P6SM FEW050 SCT250
     FM142300 33008KT P6SM FEW200
     FM150400 35004KT P6SM SCT150=

USA.gov is the U.S. government's official web portal to all federal, state and local government web resources and services.